createdAt,value
2018-08-28T00:00:57.242Z,5.00
2018-08-28T00:03:26.216Z,4.33
2018-08-28T00:05:54.635Z,5.53
2018-08-28T00:08:23.167Z,5.27
2018-08-28T00:10:51.899Z,4.60
2018-08-28T00:13:20.373Z,5.03
2018-08-28T00:15:49.170Z,5.60
2018-08-28T00:18:17.678Z,3.90
2018-08-28T00:20:46.257Z,5.00
2018-08-28T00:23:14.703Z,4.70
2018-08-28T00:25:43.187Z,4.70
2018-08-28T00:28:11.621Z,4.27
2018-08-28T00:30:40.283Z,4.67
2018-08-28T00:33:09.991Z,4.40
2018-08-28T00:35:38.660Z,4.63
2018-08-28T00:38:07.339Z,5.03
2018-08-28T00:40:35.871Z,4.43
2018-08-28T00:43:04.379Z,5.03
2018-08-28T00:45:33.311Z,4.10
2018-08-28T00:48:01.740Z,4.03
2018-08-28T00:50:30.156Z,4.80
2018-08-28T00:52:58.789Z,4.83
2018-08-28T00:55:27.323Z,4.57
2018-08-28T00:57:55.799Z,4.30
2018-08-28T01:00:24.287Z,4.50
2018-08-28T01:02:52.823Z,4.60
2018-08-28T01:05:22.956Z,5.00
2018-08-28T01:07:52.038Z,5.47
2018-08-28T01:10:20.535Z,5.77
2018-08-28T01:12:49.032Z,5.10
2018-08-28T01:15:17.537Z,5.03
2018-08-28T01:17:46.015Z,5.10
2018-08-28T01:20:14.524Z,3.93
2018-08-28T01:22:43.304Z,4.33
2018-08-28T01:25:11.826Z,4.90
2018-08-28T01:27:40.387Z,5.57
2018-08-28T01:30:09.159Z,5.10
2018-08-28T01:32:37.674Z,4.70
2018-08-28T01:35:06.200Z,4.47
2018-08-28T01:37:34.948Z,5.07
2018-08-28T01:40:03.397Z,5.13
2018-08-28T01:42:31.883Z,5.57
2018-08-28T01:45:00.348Z,5.20
2018-08-28T01:47:28.977Z,5.10
2018-08-28T01:49:57.406Z,5.77
2018-08-28T01:52:26.116Z,5.63
2018-08-28T01:54:54.546Z,5.27
2018-08-28T01:57:23.072Z,4.90
2018-08-28T01:59:51.800Z,5.40
2018-08-28T02:02:20.311Z,6.20
2018-08-28T02:04:48.867Z,5.30
2018-08-28T02:07:17.591Z,5.63
2018-08-28T02:09:46.120Z,5.13
2018-08-28T02:12:14.621Z,4.90
2018-08-28T02:14:43.383Z,4.90
2018-08-28T02:17:11.920Z,5.53
2018-08-28T02:19:40.396Z,6.10
2018-08-28T02:22:08.967Z,5.73
2018-08-28T02:24:37.481Z,5.50
2018-08-28T02:27:06.479Z,4.80
2018-08-28T02:29:35.004Z,5.77
2018-08-28T02:32:03.483Z,5.00
2018-08-28T02:34:32.019Z,5.43
2018-08-28T02:37:00.493Z,6.10
2018-08-28T02:39:28.959Z,4.43
2018-08-28T02:41:57.371Z,5.47
2018-08-28T02:44:25.879Z,4.40
2018-08-28T02:46:54.367Z,6.10
2018-08-28T02:49:22.950Z,6.10
2018-08-28T02:51:51.602Z,5.50
2018-08-28T02:54:20.019Z,4.97
2018-08-28T02:56:48.515Z,5.17
2018-08-28T02:59:17.077Z,5.80
2018-08-28T03:01:45.555Z,5.40
2018-08-28T03:04:13.980Z,7.33
2018-08-28T03:06:42.463Z,6.20
2018-08-28T03:09:10.892Z,5.00
2018-08-28T03:11:39.318Z,5.70
2018-08-28T03:14:08.002Z,4.90
2018-08-28T03:16:36.622Z,5.93
2018-08-28T03:19:05.051Z,6.00
2018-08-28T03:21:33.692Z,4.67
2018-08-28T03:24:02.159Z,6.40
2018-08-28T03:26:30.729Z,6.20
2018-08-28T03:28:59.562Z,5.77
2018-08-28T03:31:27.927Z,6.10
2018-08-28T03:33:56.448Z,6.03
2018-08-28T03:36:25.105Z,5.37
2018-08-28T03:38:53.625Z,6.50
2018-08-28T03:41:22.083Z,5.13
2018-08-28T03:43:50.580Z,7.67
2018-08-28T03:46:18.971Z,5.10
2018-08-28T03:48:47.495Z,6.10
2018-08-28T03:51:16.185Z,5.43
2018-08-28T03:53:44.623Z,5.60
2018-08-28T03:56:13.097Z,6.50
2018-08-28T03:58:41.624Z,5.80
2018-08-28T04:01:10.263Z,5.60
2018-08-28T04:03:38.779Z,4.53
2018-08-28T04:06:07.747Z,4.70
2018-08-28T04:08:36.197Z,5.60
2018-08-28T04:11:04.687Z,5.30
2018-08-28T04:13:33.335Z,5.57
2018-08-28T04:16:01.811Z,6.17
2018-08-28T04:18:30.335Z,5.37
2018-08-28T04:20:58.923Z,5.00
2018-08-28T04:23:27.643Z,5.40
2018-08-28T04:25:56.103Z,5.77
2018-08-28T04:28:24.839Z,6.33
2018-08-28T04:30:53.382Z,5.80
2018-08-28T04:33:21.819Z,4.90
2018-08-28T04:35:50.268Z,5.70
2018-08-28T04:38:18.743Z,4.80
2018-08-28T04:40:47.235Z,6.00
2018-08-28T04:43:15.683Z,6.33
2018-08-28T04:45:44.127Z,6.20
2018-08-28T04:48:12.651Z,5.80
2018-08-28T04:50:41.360Z,5.80
2018-08-28T04:53:09.879Z,6.37
2018-08-28T04:55:38.379Z,6.00
2018-08-28T04:58:06.923Z,5.70
2018-08-28T05:00:35.437Z,5.27
2018-08-28T05:03:03.888Z,5.83
2018-08-28T05:05:32.519Z,6.20
2018-08-28T05:08:00.959Z,5.77
2018-08-28T05:10:29.443Z,6.70
2018-08-28T05:12:58.163Z,6.53
2018-08-28T05:15:26.639Z,5.90
2018-08-28T05:17:55.171Z,6.30
2018-08-28T05:20:23.899Z,6.80
2018-08-28T05:22:52.539Z,5.90
2018-08-28T05:25:21.163Z,7.30
2018-08-28T05:27:49.839Z,6.13
2018-08-28T05:30:18.404Z,5.57
2018-08-28T05:32:46.962Z,6.53
2018-08-28T05:35:15.584Z,6.20
2018-08-28T05:37:44.051Z,5.30
2018-08-28T05:40:12.516Z,6.80
2018-08-28T05:42:41.279Z,7.10
2018-08-28T05:45:09.800Z,5.90
2018-08-28T05:47:38.279Z,6.10
2018-08-28T05:50:07.109Z,6.50
2018-08-28T05:52:35.588Z,6.67
2018-08-28T05:55:04.211Z,7.70
2018-08-28T05:57:32.696Z,6.70
2018-08-28T06:00:01.132Z,6.10
2018-08-28T06:02:29.558Z,7.20
2018-08-28T06:04:58.092Z,6.13
2018-08-28T06:07:26.564Z,6.50
2018-08-28T06:09:54.995Z,6.83
2018-08-28T06:12:24.027Z,7.70
2018-08-28T06:14:52.497Z,7.40
2018-08-28T06:17:20.948Z,7.07
2018-08-28T06:19:49.399Z,6.73
2018-08-28T06:22:17.818Z,7.60
2018-08-28T06:24:46.367Z,6.77
2018-08-28T06:27:14.963Z,8.63
2018-08-28T06:29:43.400Z,7.57
2018-08-28T06:32:11.887Z,7.67
2018-08-28T06:34:40.619Z,7.63
2018-08-28T06:37:09.073Z,7.40
2018-08-28T06:39:37.532Z,7.30
2018-08-28T06:42:06.251Z,7.87
2018-08-28T06:44:34.801Z,6.93
2018-08-28T06:47:03.299Z,7.67
2018-08-28T06:49:31.947Z,8.07
2018-08-28T06:52:00.524Z,7.50
2018-08-28T06:54:28.959Z,8.40
2018-08-28T06:56:57.695Z,8.90
2018-08-28T06:59:26.148Z,6.93
2018-08-28T07:01:54.659Z,7.67
2018-08-28T07:04:23.421Z,7.83
2018-08-28T07:06:51.924Z,8.00
2018-08-28T07:09:20.427Z,7.40
2018-08-28T07:11:48.947Z,7.10
2018-08-28T07:14:17.401Z,5.90
2018-08-28T07:16:45.935Z,6.80
2018-08-28T07:19:14.447Z,6.80
2018-08-28T07:21:43.023Z,7.43
2018-08-28T07:24:11.508Z,7.37
2018-08-28T07:26:40.043Z,6.90
2018-08-28T07:29:08.567Z,7.30
2018-08-28T07:31:37.089Z,7.03
2018-08-28T07:34:06.052Z,6.83
2018-08-28T07:36:34.520Z,6.83
2018-08-28T07:39:03.238Z,7.13
2018-08-28T07:41:31.935Z,7.00
2018-08-28T07:44:00.459Z,5.97
2018-08-28T07:46:28.950Z,6.20
2018-08-28T07:48:57.503Z,6.43
2018-08-28T07:51:25.995Z,6.77
2018-08-28T07:53:54.497Z,6.00
2018-08-28T07:56:23.002Z,6.73
2018-08-28T07:58:51.466Z,6.50
2018-08-28T08:01:19.903Z,5.43
2018-08-28T08:03:48.596Z,5.57
2018-08-28T08:06:17.035Z,5.97
2018-08-28T08:08:45.451Z,5.93
2018-08-28T08:11:13.983Z,5.30
2018-08-28T08:13:42.420Z,7.80
2018-08-28T08:16:10.996Z,5.70
2018-08-28T08:18:39.606Z,6.47
2018-08-28T08:21:08.171Z,6.50
2018-08-28T08:23:36.697Z,6.83
2018-08-28T08:26:05.177Z,5.37
2018-08-28T08:28:33.663Z,6.03
2018-08-28T08:31:02.147Z,6.30
2018-08-28T08:33:30.772Z,6.33
2018-08-28T08:35:59.351Z,6.40
2018-08-28T08:38:27.860Z,6.43
2018-08-28T08:40:56.363Z,5.70
2018-08-28T08:43:24.826Z,6.47
2018-08-28T08:45:53.332Z,6.20
2018-08-28T08:48:22.103Z,6.40
2018-08-28T08:50:50.675Z,5.77
2018-08-28T08:53:19.115Z,5.43
2018-08-28T08:55:47.635Z,5.50
2018-08-28T08:58:16.071Z,5.70
2018-08-28T09:00:44.604Z,5.97
2018-08-28T09:03:13.270Z,5.93
2018-08-28T09:05:41.803Z,5.33
2018-08-28T09:08:10.343Z,5.57
2018-08-28T09:10:38.960Z,5.60
2018-08-28T09:13:07.376Z,6.20
2018-08-28T09:15:35.900Z,5.27
2018-08-28T09:18:04.559Z,4.90
2018-08-28T09:20:33.058Z,5.47
2018-08-28T09:23:01.496Z,5.37
2018-08-28T09:25:30.315Z,5.80
2018-08-28T09:27:58.851Z,6.10
2018-08-28T09:30:27.360Z,5.73
2018-08-28T09:32:55.881Z,5.57
2018-08-28T09:35:24.311Z,4.50
2018-08-28T09:37:52.816Z,5.30
2018-08-28T09:40:21.541Z,5.00
2018-08-28T09:42:50.035Z,5.33
2018-08-28T09:45:18.491Z,6.30
2018-08-28T09:47:47.181Z,5.63
2018-08-28T09:50:15.778Z,4.80
2018-08-28T09:52:44.299Z,5.47
2018-08-28T09:55:13.132Z,6.50
2018-08-28T09:57:41.602Z,5.13
2018-08-28T10:00:14.768Z,5.20
2018-08-28T10:02:43.619Z,5.47
2018-08-28T10:05:12.083Z,5.03
2018-08-28T10:07:40.620Z,5.70
2018-08-28T10:10:09.112Z,5.23
2018-08-28T10:12:37.579Z,4.60
2018-08-28T10:15:06.716Z,5.67
2018-08-28T10:17:35.204Z,6.30
2018-08-28T10:20:03.872Z,5.37
2018-08-28T10:22:32.360Z,4.93
2018-08-28T10:25:00.896Z,5.67
2018-08-28T10:27:29.473Z,4.80
2018-08-28T10:29:58.193Z,5.67
2018-08-28T10:32:26.713Z,4.80
2018-08-28T10:34:55.484Z,5.20
2018-08-28T10:37:23.967Z,4.90
2018-08-28T10:39:52.579Z,5.03
2018-08-28T10:42:21.057Z,5.20
2018-08-28T10:44:49.503Z,6.00
2018-08-28T10:47:18.012Z,4.73
2018-08-28T10:49:46.499Z,5.30
2018-08-28T10:52:15.065Z,4.63
2018-08-28T10:54:43.519Z,5.00
2018-08-28T10:57:12.027Z,5.30
2018-08-28T10:59:40.767Z,5.43
2018-08-28T11:02:09.188Z,5.00
2018-08-28T11:04:37.815Z,5.40
2018-08-28T11:07:06.460Z,5.30
2018-08-28T11:09:34.912Z,4.87
2018-08-28T11:12:03.351Z,5.30
2018-08-28T11:14:32.039Z,4.87
2018-08-28T11:17:00.599Z,4.63
2018-08-28T11:19:29.075Z,4.67
2018-08-28T11:21:57.822Z,6.23
2018-08-28T11:24:26.357Z,4.70
2018-08-28T11:26:54.775Z,5.63
2018-08-28T11:29:23.407Z,5.10
2018-08-28T11:31:51.860Z,5.00
2018-08-28T11:34:20.669Z,4.73
2018-08-28T11:36:49.328Z,5.10
2018-08-28T11:39:17.825Z,6.50
2018-08-28T11:41:46.332Z,4.77
2018-08-28T11:44:14.983Z,4.47
2018-08-28T11:46:43.544Z,4.90
2018-08-28T11:49:12.159Z,5.63
2018-08-28T11:51:40.650Z,5.30
2018-08-28T11:54:09.075Z,4.97
2018-08-28T11:56:37.732Z,5.00
2018-08-28T11:59:06.262Z,5.67
2018-08-28T12:01:34.716Z,4.77
2018-08-28T12:04:03.196Z,5.10
2018-08-28T12:06:31.846Z,4.53
2018-08-28T12:09:00.221Z,3.93
2018-08-28T12:11:28.771Z,5.20
2018-08-28T12:13:57.287Z,4.77
2018-08-28T12:16:25.845Z,4.40
2018-08-28T12:18:54.279Z,4.50
2018-08-28T12:21:22.780Z,5.77
2018-08-28T12:23:51.175Z,5.33
2018-08-28T12:26:19.617Z,5.33
2018-08-28T12:28:48.283Z,5.17
2018-08-28T12:31:16.832Z,3.97
2018-08-28T12:33:45.292Z,4.70
2018-08-28T12:36:13.975Z,5.33
2018-08-28T12:38:42.498Z,5.20
2018-08-28T12:41:11.351Z,4.23
2018-08-28T12:43:40.021Z,4.07
2018-08-28T12:46:08.533Z,4.97
2018-08-28T12:48:36.995Z,4.90
2018-08-28T12:51:06.320Z,5.03
2018-08-28T12:53:34.800Z,5.27
2018-08-28T12:56:03.280Z,4.53
2018-08-28T12:58:31.995Z,5.40
2018-08-28T13:01:00.418Z,5.40
2018-08-28T13:03:28.884Z,4.97
2018-08-28T13:05:57.396Z,5.40
2018-08-28T13:08:25.847Z,4.97
2018-08-28T13:10:54.511Z,4.60
2018-08-28T13:13:23.223Z,5.63
2018-08-28T13:15:51.974Z,4.93
2018-08-28T13:18:20.818Z,5.70
2018-08-28T13:20:49.308Z,4.90
2018-08-28T13:23:17.763Z,4.97
2018-08-28T13:25:46.292Z,5.23
2018-08-28T13:28:14.992Z,5.23
2018-08-28T13:30:43.568Z,4.50
2018-08-28T13:33:12.038Z,4.77
2018-08-28T13:35:40.731Z,5.10
2018-08-28T13:38:09.227Z,4.50
2018-08-28T13:40:37.869Z,4.70
2018-08-28T13:43:07.046Z,5.00
2018-08-28T13:45:35.650Z,4.73
2018-08-28T13:48:04.111Z,4.67
2018-08-28T13:50:32.679Z,5.40
2018-08-28T13:53:01.117Z,4.87
2018-08-28T13:55:29.592Z,5.30
2018-08-28T13:57:58.019Z,5.20
2018-08-28T14:00:26.639Z,5.20
2018-08-28T14:02:55.068Z,5.13
2018-08-28T14:05:23.747Z,4.60
2018-08-28T14:07:52.213Z,4.50
2018-08-28T14:10:20.666Z,4.87
2018-08-28T14:12:49.211Z,4.53
2018-08-28T14:15:17.671Z,4.57
2018-08-28T14:17:46.151Z,4.83
2018-08-28T14:20:14.657Z,4.97
2018-08-28T14:22:43.323Z,4.90
2018-08-28T14:25:11.771Z,4.30
2018-08-28T14:27:40.347Z,4.73
2018-08-28T14:30:14.095Z,4.90
2018-08-28T14:32:42.552Z,4.13
2018-08-28T14:35:10.975Z,4.80
2018-08-28T14:37:39.444Z,4.93
2018-08-28T14:40:08.099Z,5.50
2018-08-28T14:42:36.730Z,5.17
2018-08-28T14:45:05.631Z,4.40
2018-08-28T14:47:34.288Z,4.97
2018-08-28T14:50:02.886Z,5.10
2018-08-28T14:52:31.222Z,5.07
2018-08-28T14:54:59.752Z,4.40
2018-08-28T14:57:28.248Z,4.80
2018-08-28T14:59:56.813Z,4.63
2018-08-28T15:02:25.271Z,5.23
2018-08-28T15:04:53.743Z,4.97
2018-08-28T15:07:22.184Z,5.20
2018-08-28T15:09:50.969Z,5.00
2018-08-28T15:12:19.407Z,5.33
2018-08-28T15:14:47.954Z,4.23
2018-08-28T15:17:16.570Z,4.90
2018-08-28T15:19:45.048Z,5.80
2018-08-28T15:22:13.471Z,4.93
2018-08-28T15:24:42.160Z,4.30
2018-08-28T15:27:10.697Z,5.20
2018-08-28T15:29:39.143Z,5.00
2018-08-28T15:32:07.801Z,5.17
2018-08-28T15:34:36.468Z,4.20
2018-08-28T15:37:05.055Z,5.00
2018-08-28T15:39:33.675Z,4.53
2018-08-28T15:42:02.203Z,5.00
2018-08-28T15:44:30.722Z,4.83
2018-08-28T15:46:59.418Z,5.33
2018-08-28T15:49:27.916Z,6.00
2018-08-28T15:51:56.437Z,4.33
2018-08-28T15:54:24.964Z,4.90
2018-08-28T15:56:53.435Z,4.80
2018-08-28T15:59:21.967Z,4.70
2018-08-28T16:01:50.407Z,5.37
2018-08-28T16:04:21.579Z,5.10
2018-08-28T16:06:51.787Z,4.60
2018-08-28T16:09:20.277Z,4.30
2018-08-28T16:11:48.979Z,4.00
2018-08-28T16:14:17.451Z,4.70
2018-08-28T16:16:46.691Z,4.57
2018-08-28T16:19:15.384Z,5.00
2018-08-28T16:21:52.939Z,4.17
2018-08-28T16:24:21.955Z,5.10
2018-08-28T16:26:50.491Z,4.60
2018-08-28T16:29:19.021Z,4.43
2018-08-28T16:31:47.578Z,4.47
2018-08-28T16:34:16.040Z,5.43
2018-08-28T16:36:44.703Z,4.93
2018-08-28T16:39:13.167Z,3.90
2018-08-28T16:41:41.763Z,5.00
2018-08-28T16:44:10.420Z,5.50
2018-08-28T16:46:39.005Z,5.20
2018-08-28T16:49:07.407Z,5.57
2018-08-28T16:51:36.196Z,4.20
2018-08-28T16:54:04.819Z,5.10
2018-08-28T16:56:33.331Z,4.43
2018-08-28T16:59:01.967Z,5.10
2018-08-28T17:01:30.483Z,4.90
2018-08-28T17:03:58.883Z,5.10
2018-08-28T17:06:27.479Z,4.80
2018-08-28T17:08:55.972Z,4.73
2018-08-28T17:11:24.483Z,6.60
2018-08-28T17:13:53.251Z,4.57
2018-08-28T17:16:21.765Z,5.13
2018-08-28T17:18:50.243Z,4.10
2018-08-28T17:21:18.780Z,4.07
2018-08-28T17:23:47.268Z,4.20
2018-08-28T17:26:15.712Z,4.30
2018-08-28T17:28:44.409Z,4.90
2018-08-28T17:31:12.943Z,4.33
2018-08-28T17:33:41.376Z,3.50
2018-08-28T17:36:10.099Z,5.40
2018-08-28T17:38:38.636Z,4.70
2018-08-28T17:41:07.084Z,3.87
2018-08-28T17:43:35.679Z,4.13
2018-08-28T17:46:04.276Z,4.40
2018-08-28T17:48:33.753Z,5.07
2018-08-28T17:51:02.387Z,5.10
2018-08-28T17:53:30.930Z,4.10
2018-08-28T17:55:59.770Z,4.50
2018-08-28T17:58:28.590Z,4.33
2018-08-28T18:00:57.751Z,4.30
2018-08-28T18:03:26.286Z,4.40
2018-08-28T18:05:55.442Z,5.23
2018-08-28T18:08:24.266Z,4.63
2018-08-28T18:10:53.056Z,3.80
2018-08-28T18:13:21.790Z,4.87
2018-08-28T18:15:50.607Z,4.40
2018-08-28T18:18:19.830Z,4.20
2018-08-28T18:20:49.576Z,4.83
2018-08-28T18:23:19.063Z,4.00
2018-08-28T18:25:48.058Z,4.43
2018-08-28T18:28:17.333Z,4.17
2018-08-28T18:30:46.376Z,3.93
2018-08-28T18:33:15.415Z,4.20
2018-08-28T18:35:44.653Z,4.20
2018-08-28T18:38:13.619Z,4.30
2018-08-28T18:40:42.851Z,4.80
2018-08-28T18:43:11.958Z,3.70
2018-08-28T18:45:41.486Z,4.47
2018-08-28T18:48:10.547Z,4.50
2018-08-28T18:50:40.499Z,3.37
2018-08-28T18:53:09.635Z,3.90
2018-08-28T18:55:38.842Z,4.60
2018-08-28T18:58:08.317Z,4.07
2018-08-28T19:00:37.663Z,4.17
2018-08-28T19:03:06.778Z,3.10
2018-08-28T19:05:36.662Z,3.60
2018-08-28T19:08:05.784Z,4.10
2018-08-28T19:10:34.977Z,3.40
2018-08-28T19:13:04.293Z,3.97
2018-08-28T19:15:33.487Z,4.10
2018-08-28T19:18:02.661Z,3.57
2018-08-28T19:20:32.242Z,3.70
2018-08-28T19:23:01.966Z,4.37
2018-08-28T19:25:31.979Z,4.00
2018-08-28T19:28:01.874Z,3.73
2018-08-28T19:30:31.061Z,3.23
2018-08-28T19:33:00.131Z,4.33
2018-08-28T19:35:29.153Z,4.00
2018-08-28T19:37:58.244Z,3.90
2018-08-28T19:40:28.397Z,4.03
2018-08-28T19:42:57.525Z,3.83
2018-08-28T19:45:30.755Z,4.67
2018-08-28T19:47:59.702Z,3.50
2018-08-28T19:50:29.508Z,3.90
2018-08-28T19:52:58.717Z,3.83
2018-08-28T19:55:28.138Z,4.03
2018-08-28T19:57:57.840Z,3.77
2018-08-28T20:00:27.815Z,3.53
2018-08-28T20:02:56.807Z,3.93
2018-08-28T20:05:28.024Z,3.40
2018-08-28T20:07:57.614Z,3.63
2018-08-28T20:10:27.828Z,4.00
2018-08-28T20:12:57.228Z,3.33
2018-08-28T20:15:26.255Z,4.30
2018-08-28T20:17:56.082Z,4.43
2018-08-28T20:20:25.117Z,3.83
2018-08-28T20:22:54.222Z,4.80
2018-08-28T20:25:25.218Z,4.47
2018-08-28T20:27:54.351Z,4.70
2018-08-28T20:30:23.955Z,4.50
2018-08-28T20:32:53.294Z,4.37
2018-08-28T20:35:22.380Z,4.43
2018-08-28T20:37:51.359Z,4.53
2018-08-28T20:40:20.524Z,3.90
2018-08-28T20:42:49.507Z,5.13
2018-08-28T20:45:18.471Z,4.67
2018-08-28T20:47:47.528Z,4.00
2018-08-28T20:50:17.481Z,4.93
2018-08-28T20:52:46.357Z,4.10
2018-08-28T20:55:15.448Z,3.50
2018-08-28T20:57:44.252Z,3.93
2018-08-28T21:00:13.078Z,4.80
2018-08-28T21:02:42.109Z,3.57
2018-08-28T21:05:10.625Z,3.10
2018-08-28T21:07:39.248Z,3.90
2018-08-28T21:10:07.915Z,4.23
2018-08-28T21:12:36.542Z,3.97
2018-08-28T21:15:04.992Z,3.67
2018-08-28T21:17:33.459Z,4.30
2018-08-28T21:20:02.001Z,3.83
2018-08-28T21:22:30.456Z,4.10
2018-08-28T21:24:59.103Z,4.13
2018-08-28T21:27:27.523Z,4.60
2018-08-28T21:29:56.061Z,5.03
2018-08-28T21:32:24.817Z,3.20
2018-08-28T21:34:53.359Z,5.10
2018-08-28T21:37:21.883Z,4.07
2018-08-28T21:39:50.351Z,4.40
2018-08-28T21:42:18.876Z,4.77
2018-08-28T21:44:47.325Z,4.63
2018-08-28T21:47:15.831Z,4.50
2018-08-28T21:49:44.316Z,3.97
2018-08-28T21:52:12.907Z,3.80
2018-08-28T21:54:41.439Z,4.80
2018-08-28T21:57:09.880Z,4.20
2018-08-28T21:59:38.381Z,4.23
2018-08-28T22:02:06.961Z,4.50
2018-08-28T22:04:35.616Z,4.37
2018-08-28T22:07:09.420Z,4.87
2018-08-28T22:09:37.912Z,4.03
2018-08-28T22:12:06.414Z,3.87
2018-08-28T22:14:35.115Z,4.10
2018-08-28T22:17:03.807Z,4.60
2018-08-28T22:19:32.375Z,4.77
2018-08-28T22:22:01.147Z,4.50
2018-08-28T22:24:30.123Z,4.53
2018-08-28T22:26:58.763Z,5.33
2018-08-28T22:29:27.287Z,3.97
2018-08-28T22:31:55.774Z,4.63
2018-08-28T22:34:24.395Z,4.90
2018-08-28T22:36:53.127Z,4.70
2018-08-28T22:39:21.659Z,4.30
2018-08-28T22:41:50.493Z,4.40
2018-08-28T22:44:19.119Z,4.87
2018-08-28T22:46:47.556Z,4.93
2018-08-28T22:49:16.021Z,4.20
2018-08-28T22:51:44.577Z,4.60
2018-08-28T22:54:13.271Z,4.30
2018-08-28T22:56:41.575Z,4.73
2018-08-28T22:59:10.033Z,5.23
2018-08-28T23:01:38.547Z,4.20
2018-08-28T23:04:07.064Z,5.30
2018-08-28T23:06:35.792Z,4.20
2018-08-28T23:09:05.032Z,4.80
2018-08-28T23:11:33.455Z,5.17
2018-08-28T23:14:02.075Z,4.90
2018-08-28T23:16:30.623Z,6.40
2018-08-28T23:18:59.364Z,4.60
2018-08-28T23:21:27.969Z,5.30
2018-08-28T23:23:56.487Z,5.77
2018-08-28T23:26:24.975Z,5.53
2018-08-28T23:28:53.658Z,4.50
2018-08-28T23:31:22.196Z,4.53
2018-08-28T23:33:50.702Z,4.43
2018-08-28T23:36:19.156Z,5.10
2018-08-28T23:38:47.599Z,4.30
2018-08-28T23:41:16.084Z,4.37
2018-08-28T23:43:44.816Z,4.60
2018-08-28T23:46:13.244Z,4.60
2018-08-28T23:48:41.691Z,5.20
2018-08-28T23:51:10.557Z,4.53
2018-08-28T23:53:39.215Z,4.67
2018-08-28T23:56:07.981Z,4.77
2018-08-28T23:58:36.539Z,5.60
